Latest Weather Observations for Viewbank

IDV60901

Issued at 2:11 pm EST Thursday 28 May 2015 (issued every 10 minutes, with the page automatically refreshed every 10 minutes)

About weather observations | Map of Melbourne area stations | Latest observations for Melbourne area | Other Formats
Station Details ID: 086068 Name: VIEWBANK Lat: -37.74 Lon: 145.10 Height: 66.1 m
Data from the previous 72 hours. | See also: Recent months at Viewbank
Date/Time
EST
Tmp

°C
App
Tmp
°C
Dew
Point
°C
Rel
Hum
%
Delta-T

°C
Wind Press
QNH
hPa
Press
MSL
hPa
Rain
since
9 am
mm
Dir
 
Spd
km/h
Gust
km/h
Spd
kts
Gust
kts
28/02:00pm 17.6 13.0 9.8 60 4.1 N 24 41 13 22 1014.5 1014.5 0.0
28/01:30pm 17.5 13.0 9.9 61 4.0 N 24 39 13 21 1014.7 1014.7 0.0
28/01:00pm 17.3 13.4 10.7 65 3.5 N 22 43 12 23 1015.0 1015.0 0.0
28/12:30pm 17.2 13.7 11.0 67 3.3 N 20 35 11 19 1015.6 1015.6 0.0
28/12:00pm 17.0 12.9 11.3 69 3.1 N 24 37 13 20 1016.2 1016.2 0.0
28/11:30am 16.2 12.7 10.9 71 2.8 N 20 33 11 18 1016.7 1016.7 0.0
28/11:00am 16.4 12.4 10.5 68 3.1 N 22 35 12 19 1017.4 1017.4 0.0
28/10:30am 16.4 12.0 10.3 67 3.2 N 24 41 13 22 1017.8 1017.8 0.0
28/10:00am 15.5 12.1 10.5 72 2.6 N 19 30 10 16 1017.8 1017.8 0.0
28/09:30am 14.9 10.9 10.5 75 2.3 N 22 39 12 21 1017.7 1017.7 0.0
28/09:00am 14.7 10.7 10.3 75 2.3 N 22 39 12 21 1017.8 1017.8 0.0
28/08:30am 14.6 11.1 10.8 78 2.0 N 20 35 11 19 1017.6 1017.6 0.0
28/08:00am 14.0 10.6 10.6 80 1.8 N 19 33 10 18 1017.4 1017.4 0.0
28/07:30am 13.6 10.2 10.6 82 1.6 N 19 33 10 18 1017.4 1017.4 0.0
28/07:00am 13.5 9.5 10.5 82 1.6 N 22 35 12 19 1017.1 1017.1 0.0
28/06:30am 13.7 9.3 10.5 81 1.7 N 24 39 13 21 1016.9 1016.9 0.0
28/06:00am 13.6 9.3 10.6 82 1.6 N 24 41 13 22 1016.5 1016.5 0.0
28/05:30am 13.4 10.0 10.6 83 1.5 N 19 35 10 19 1016.6 1016.6 0.0
28/05:00am 13.6 11.0 10.6 82 1.6 N 15 24 8 13 1016.9 1016.9 0.0
28/04:30am 13.5 10.5 10.7 83 1.5 N 17 28 9 15 1017.0 1017.0 0.0
28/04:00am 12.6 10.3 10.5 87 1.1 N 13 22 7 12 1016.9 1016.9 0.0
28/03:30am 12.1 9.7 10.2 88 1.0 N 13 20 7 11 1017.2 1017.2 0.0
28/03:00am 12.3 8.6 10.2 87 1.1 N 20 32 11 17 1017.4 1017.4 0.0
28/02:30am 12.3 9.6 10.4 88 1.0 N 15 26 8 14 1017.8 1017.8 0.0
28/02:00am 11.9 10.8 10.1 89 0.9 NNE 6 13 3 7 1018.2 1018.2 0.0
28/01:30am 12.2 11.2 10.4 89 0.9 N 6 19 3 10 1018.3 1018.3 0.0
28/01:00am 12.0 10.8 9.7 86 1.2 N 6 9 3 5 1018.3 1018.3 0.0
28/12:30am 12.8 11.3 10.7 87 1.1 NNW 9 13 5 7 1018.4 1018.4 0.0
28/12:00am 12.5 11.0 10.6 88 1.0 N 9 17 5 9 1018.7 1018.7 0.0
 
Date/Time
EST
Tmp

°C
App
Tmp
°C
Dew
Point
°C
Rel
Hum
%
Delta-T

°C
Wind Press
QNH
hPa
Press
MSL
hPa
Rain
since
9 am
mm
Dir
 
Spd
km/h
Gust
km/h
Spd
kts
Gust
kts
27/11:30pm 12.6 10.3 10.5 87 1.1 N 13 22 7 12 1018.9 1018.9 0.0
27/11:00pm 12.8 9.8 10.5 86 1.2 N 17 26 9 14 1018.8 1018.8 0.0
27/10:30pm 12.9 10.1 10.1 83 1.4 N 15 24 8 13 1019.0 1019.0 0.0
27/10:00pm 13.4 10.7 10.2 81 1.7 N 15 22 8 12 1019.2 1019.2 0.0
27/09:30pm 13.9 11.2 10.3 79 1.9 N 15 22 8 12 1019.1 1019.1 0.0
27/09:00pm 13.7 11.3 10.1 79 1.9 N 13 19 7 10 1019.2 1019.2 0.0
27/08:30pm 13.9 11.5 10.1 78 2.0 N 13 19 7 10 1019.3 1019.3 0.0
27/08:00pm 13.2 11.9 9.8 80 1.7 NNE 7 11 4 6 1019.0 1019.0 0.0
27/07:30pm 13.3 12.1 9.5 78 1.9 NE 6 11 3 6 1019.0 1019.0 0.0
27/07:00pm 13.7 12.5 9.6 76 2.1 NNE 6 11 3 6 1019.0 1019.0 0.0
27/06:30pm 14.0 12.1 9.2 73 2.5 NNE 9 20 5 11 1019.0 1019.0 0.0
27/06:00pm 14.8 12.2 9.2 69 2.9 N 13 20 7 11 1018.8 1018.8 0.0
27/05:30pm 15.3 12.3 9.2 67 3.1 N 15 30 8 16 1018.7 1018.7 0.0
27/05:00pm 16.0 13.0 9.2 64 3.5 NNW 15 24 8 13 1018.3 1018.3 0.0
27/04:30pm 16.8 13.4 9.2 61 4.0 N 17 28 9 15 1018.0 1018.0 0.0
27/04:00pm 17.3 13.3 9.2 59 4.2 NNW 20 35 11 19 1017.8 1017.8 0.0
27/03:30pm 17.4 13.1 9.3 59 4.2 N 22 43 12 23 1017.8 1017.8 0.0
27/03:00pm 17.5 13.6 9.4 59 4.2 NNW 20 35 11 19 1017.9 1017.9 0.0
27/02:30pm 17.0 12.7 9.2 60 4.1 NNW 22 35 12 19 1018.1 1018.1 0.0
27/02:00pm 17.9 14.2 9.3 57 4.5 NNW 19 32 10 17 1018.4 1018.4 0.0
27/01:30pm 17.3 15.2 9.7 61 4.0 N 11 17 6 9 1018.7 1018.7 0.0
27/01:00pm 15.4 14.0 9.5 68 3.1 NNE 7 13 4 7 1019.0 1019.0 0.0
27/12:30pm 15.1 14.2 10.5 74 2.4 NE 6 7 3 4 1019.5 1019.5 0.0
27/12:00pm 14.9 13.8 9.9 72 2.6 NNE 6 9 3 5 1020.1 1020.1 0.0
27/11:30am 15.3 12.1 8.5 64 3.5 N 15 28 8 15 1020.3 1020.3 0.0
27/11:00am 15.2 13.6 8.7 65 3.3 NE 7 11 4 6 1021.0 1021.0 0.0
27/10:30am 15.0 13.4 8.9 67 3.1 NE 7 11 4 6 1021.1 1021.1 0.0
27/10:00am 14.2 12.5 8.4 68 2.9 NE 7 11 4 6 1021.0 1021.0 0.0
27/09:30am 13.8 11.7 8.2 69 2.8 NE 9 15 5 8 1021.0 1021.0 0.0
27/09:00am 13.0 11.1 7.7 70 2.6 NE 7 13 4 7 1021.1 1021.1 0.2
27/08:30am 12.6 10.7 7.5 71 2.5 NE 7 15 4 8 1020.9 1020.9 0.2
27/08:00am 12.4 10.5 7.5 72 2.4 NE 7 13 4 7 1020.9 1020.9 0.2
27/07:30am 11.8 10.1 7.5 75 2.1 NE 6 9 3 5 1021.0 1021.0 0.2
27/07:00am 10.7 9.1 8.1 84 1.3 ENE 6 9 3 5 1020.6 1020.6 0.2
27/06:30am 10.1 9.4 8.5 90 0.8 NE 2 7 1 4 1020.6 1020.6 0.2
27/06:00am 10.3 8.9 8.9 91 0.7 ENE 6 11 3 6 1020.7 1020.7 0.2
27/05:30am 10.3 8.5 8.1 86 1.1 E 7 11 4 6 1020.9 1020.9 0.2
27/05:00am 9.4 7.6 7.3 87 1.0 E 6 7 3 4 1021.1 1021.1 0.0
27/04:30am 9.6 8.0 8.0 90 0.8 E 6 9 3 5 1021.0 1021.0 0.0
27/04:00am 9.6 8.0 7.9 89 0.8 ENE 6 7 3 4 1021.1 1021.1 0.0
27/03:30am 8.8 8.3 7.9 94 0.4 CALM 0 0 0 0 1021.2 1021.2 0.0
27/03:00am 8.0 6.7 7.7 98 0.1 NE 4 6 2 3 1021.6 1021.6 0.0
27/02:30am 8.0 7.4 7.2 95 0.4 CALM 0 0 0 0 1022.1 1022.1 0.0
27/02:00am 9.1 7.2 7.5 90 0.8 ENE 7 9 4 5 1022.3 1022.3 0.0
27/01:30am 8.6 6.7 7.7 94 0.4 ENE 7 9 4 5 1022.2 1022.2 0.0
27/01:00am 8.3 6.7 7.9 97 0.2 ENE 6 7 3 4 1022.7 1022.7 0.0
27/12:30am 8.5 6.9 8.1 97 0.2 ENE 6 9 3 5 1023.0 1023.0 0.0
27/12:00am 8.0 6.2 7.9 99 0.0 ENE 7 11 4 6 1023.4 1023.4 0.0
 
Date/Time
EST
Tmp

°C
App
Tmp
°C
Dew
Point
°C
Rel
Hum
%
Delta-T

°C
Wind Press
QNH
hPa
Press
MSL
hPa
Rain
since
9 am
mm
Dir
 
Spd
km/h
Gust
km/h
Spd
kts
Gust
kts
26/11:30pm 8.1 6.5 8.0 99 0.0 ENE 6 9 3 5 1023.8 1023.9 0.0
26/11:00pm 8.2 6.5 7.4 95 0.4 ENE 6 9 3 5 1023.8 1023.9 0.0
26/10:30pm 9.1 7.9 8.2 94 0.4 ENE 4 9 2 5 1023.9 1024.0 0.0
26/10:00pm 9.2 7.7 8.3 94 0.4 ENE 6 9 3 5 1024.1 1024.2 0.0
26/09:30pm 9.9 8.7 8.2 89 0.8 ENE 4 7 2 4 1024.2 1024.3 0.0
26/09:00pm 10.2 7.7 8.3 88 0.9 ENE 11 13 6 7 1024.2 1024.3 0.0
26/08:30pm 10.8 10.0 8.0 83 1.4 NE 2 7 1 4 1024.3 1024.4 0.0
26/08:00pm 11.1 10.0 8.3 83 1.4 NE 4 7 2 4 1024.4 1024.5 0.0
26/07:30pm 11.8 10.2 8.1 78 1.8 NE 6 9 3 5 1024.7 1024.8 0.0
26/07:00pm 11.9 10.4 8.4 79 1.7 NE 6 11 3 6 1025.1 1025.2 0.0
26/06:30pm 12.2 10.7 8.5 78 1.8 N 6 7 3 4 1025.1 1025.2 0.0
26/06:00pm 12.8 11.7 8.5 75 2.1 N 4 7 2 4 1025.1 1025.2 0.0
26/05:30pm 13.2 11.6 8.7 74 2.3 ENE 7 11 4 6 1024.7 1024.8 0.0
26/05:00pm 13.6 11.6 8.7 72 2.5 ENE 9 15 5 8 1024.6 1024.7 0.0
26/04:30pm 13.9 13.3 9.1 73 2.4 N 2 6 1 3 1025.2 1025.3 0.0
26/04:00pm 13.6 12.9 10.0 79 1.9 ENE 4 9 2 5 1025.4 1025.5 0.0
26/03:30pm 13.8 13.0 9.8 77 2.1 E 4 6 2 3 1025.5 1025.6 0.0
26/03:00pm 13.9 12.7 9.5 75 2.2 E 6 9 3 5 1025.3 1025.4 0.0
26/02:30pm 14.1 13.2 9.1 72 2.6 E 4 6 2 3 1025.6 1025.7 0.0
26/02:00pm 14.0 12.6 9.0 72 2.5 ENE 6 7 3 4 1026.1 1026.2 0.0
26/01:30pm 14.0 12.3 8.4 69 2.8 E 7 9 4 5 1026.3 1026.4 0.0
26/01:00pm 14.0 12.5 8.4 69 2.8 ESE 6 7 3 4 1026.8 1026.9 0.0
26/12:30pm 13.6 12.0 8.0 69 2.8 E 6 9 3 5 1026.9 1027.0 0.0
26/12:00pm 13.2 11.6 7.9 70 2.6 ENE 6 9 3 5 1027.6 1027.7 0.0
26/11:30am 11.6 9.7 7.7 77 1.9 E 7 9 4 5 1028.2 1028.2 0.0
26/11:00am 10.0 8.1 6.9 81 1.5 E 6 11 3 6 1029.0 1029.0 0.0
26/10:30am 9.8 7.9 6.9 82 1.4 ENE 6 7 3 4 1029.6 1029.6 0.0
26/10:00am 7.9 5.8 6.7 92 0.5 ENE 7 9 4 5 1029.7 1029.7 0.0
26/09:30am 6.4 3.5 6.3 99 0.0 ENE 11 13 6 7 1029.8 1029.8 0.0
26/09:00am 4.8 1.9 4.7 99 0.0 ENE 9 11 5 6 1029.8 1029.8 0.0
26/08:30am 3.9 1.4 3.9 100 0.0 ENE 6 7 3 4 1030.0 1030.0 0.0
26/08:00am 2.8 0.5 2.8 100 0.0 NE 4 7 2 4 1029.9 1029.9 0.0
26/07:30am 2.6 0.7 2.6 100 0.0 NNE 2 7 1 4 1029.9 1029.9 0.0
26/07:00am 2.6 0.7 2.6 100 0.0 NE 2 6 1 3 1029.5 1029.5 0.0
26/06:30am 3.1 -0.1 3.1 100 0.0 ENE 9 13 5 7 1029.4 1029.4 0.0
26/06:00am 2.7 0.0 2.7 100 0.0 ENE 6 9 3 5 1029.3 1029.3 0.0
26/05:30am 3.3 0.7 3.3 100 0.0 ENE 6 7 3 4 1029.4 1029.4 0.0
26/05:00am 3.4 0.3 3.4 100 0.0 ENE 9 11 5 6 1029.2 1029.2 0.0
26/04:30am 3.0 0.3 2.9 99 0.0 NE 6 7 3 4 1029.3 1029.3 0.0
26/04:00am 3.8 1.1 3.7 99 0.0 NE 7 11 4 6 1029.4 1029.4 0.0
26/03:30am 4.2 2.5 4.1 99 0.0 NE 2 6 1 3 1029.4 1029.4 0.0
26/03:00am 4.5 2.9 4.4 99 0.0 NE 2 7 1 4 1029.5 1029.5 0.0
26/02:30am 4.7 2.7 4.6 99 0.0 NE 4 7 2 4 1029.7 1029.7 0.0
26/02:00am 4.8 3.2 4.7 99 0.0 NNE 2 7 1 4 1029.7 1029.7 0.0
26/01:30am 5.2 3.7 5.1 99 0.0 NE 2 6 1 3 1029.6 1029.6 0.0
26/01:00am 5.3 3.8 5.2 99 0.0 NE 2 6 1 3 1029.8 1029.8 0.0
26/12:30am 5.7 4.7 5.6 99 0.0 CALM 0 0 0 0 1030.1 1030.1 0.0
26/12:00am 6.1 4.0 6.0 99 0.0 ENE 6 7 3 4 1030.0 1030.0 0.0
 
Date/Time
EST
Tmp

°C
App
Tmp
°C
Dew
Point
°C
Rel
Hum
%
Delta-T

°C
Wind Press
QNH
hPa
Press
MSL
hPa
Rain
since
9 am
mm
Dir
 
Spd
km/h
Gust
km/h
Spd
kts
Gust
kts
25/11:30pm 6.4 5.6 6.3 99 0.0 CALM 0 6 0 3 1030.0 1030.0 0.0
25/11:00pm 6.9 4.5 6.8 99 0.0 ENE 9 11 5 6 1030.2 1030.2 0.0
25/10:30pm 7.2 4.8 7.1 99 0.0 ENE 9 11 5 6 1030.3 1030.3 0.0
25/10:00pm 7.6 5.3 7.5 99 0.0 ENE 9 11 5 6 1030.5 1030.5 0.0
25/09:30pm 8.1 6.4 7.7 97 0.2 ENE 6 7 3 4 1030.5 1030.5 0.0
25/09:00pm 8.4 5.7 7.5 94 0.4 ENE 11 15 6 8 1030.5 1030.5 0.0
25/08:30pm 8.7 6.5 7.8 94 0.4 ENE 9 13 5 7 1030.4 1030.4 0.0
25/08:00pm 9.2 7.1 8.1 93 0.5 ENE 9 11 5 6 1030.3 1030.3 0.0
25/07:30pm 9.8 8.0 7.9 88 0.9 ENE 7 9 4 5 1030.2 1030.2 0.0
25/07:00pm 10.6 9.3 7.7 82 1.4 ENE 4 7 2 4 1030.0 1030.0 0.0
25/06:30pm 11.2 9.4 7.3 77 1.9 NE 6 7 3 4 1029.6 1029.6 0.0
25/06:00pm 11.9 9.5 7.2 73 2.3 ENE 9 11 5 6 1029.2 1029.2 0.0
25/05:30pm 12.8 10.8 7.0 68 2.8 ENE 7 9 4 5 1028.9 1028.9 0.0
25/05:00pm 13.5 12.0 6.8 64 3.2 ENE 4 7 2 4 1028.9 1028.9 0.0
25/04:30pm 14.6 13.1 6.9 60 3.8 ENE 4 7 2 4 1028.9 1028.9 0.0
25/04:00pm 15.0 13.6 7.1 59 3.9 NE 4 11 2 6 1028.9 1028.9 0.0
25/03:30pm 15.0 12.6 6.8 58 4.0 N 9 15 5 8 1029.0 1029.0 0.0
25/03:00pm 15.1 12.6 6.4 56 4.2 N 9 15 5 8 1028.9 1028.9 0.0
25/02:30pm 15.8 13.7 6.5 54 4.5 NNE 7 11 4 6 1029.3 1029.3 0.0

Latest Capital City Observations: Canberra | Sydney | Melbourne | Brisbane | Adelaide | Perth | Hobart | Darwin

Other Formats:

Comma delimited format used in spreadsheet applications
http://www.bom.gov.au/fwo/IDV60901/IDV60901.95874.axf

JavaScript Object Notation format (JSON) in row-major order
http://www.bom.gov.au/fwo/IDV60901/IDV60901.95874.json